Time;durP1;ratioP1;P1;durP2;ratioP2;P2;SDS_P1;SDS_P2;PMS_P1;PMS_P2;Temp;Humidity;BMP_temperature;BMP_pressure;BME280_temperature;BME280_humidity;BME280_pressure;Samples;Min_cycle;Max_cycle;Signal;HPM_P1;HPM_P2
2022/04/13 00:00:15;;;;;;;6.73;4.20;;;16.20;46.20;;;;;;5090428;28;20444;-88
2022/04/13 00:02:42;;;;;;;5.57;4.47;;;16.20;46.30;;;;;;5075329;28;20459;-87
2022/04/13 00:05:10;;;;;;;7.53;4.17;;;16.20;46.40;;;;;;5092850;28;23156;-87
2022/04/13 00:07:38;;;;;;;6.27;4.30;;;16.20;46.30;;;;;;5091618;28;20517;-89
2022/04/13 00:10:07;;;;;;;4.67;3.77;;;16.20;46.30;;;;;;5070878;28;21203;-89
2022/04/13 00:12:37;;;;;;;3.90;3.53;;;16.10;45.90;;;;;;5091407;28;20546;-88
2022/04/13 00:15:05;;;;;;;3.40;3.07;;;16.10;46.10;;;;;;5089125;28;20512;-89
2022/04/13 00:17:32;;;;;;;6.70;3.10;;;16.10;46.00;;;;;;5053915;28;20479;-87
2022/04/13 00:20:00;;;;;;;3.50;3.20;;;16.10;46.20;;;;;;5061043;28;20451;-86
2022/04/13 00:22:27;;;;;;;5.67;3.67;;;16.10;46.00;;;;;;5093986;28;20452;-89
2022/04/13 00:24:54;;;;;;;4.27;3.77;;;16.10;46.10;;;;;;5072058;28;20446;-89
2022/04/13 00:27:21;;;;;;;5.70;4.10;;;16.00;45.90;;;;;;5089857;28;20468;-87
2022/04/13 00:29:49;;;;;;;6.20;3.30;;;16.00;46.70;;;;;;5088277;28;20459;-87
2022/04/13 00:32:16;;;;;;;6.90;3.60;;;16.00;46.40;;;;;;5091842;28;20484;-88
2022/04/13 00:34:43;;;;;;;4.77;3.43;;;16.00;46.20;;;;;;5090905;28;20479;-87
2022/04/13 00:37:10;;;;;;;5.47;4.20;;;16.00;46.30;;;;;;5089627;28;21191;-87
2022/04/13 00:39:40;;;;;;;4.77;4.07;;;16.00;46.40;;;;;;5090026;28;20436;-88
2022/04/13 00:42:08;;;;;;;4.50;3.87;;;16.00;46.50;;;;;;5088799;28;20499;-88
2022/04/13 00:44:36;;;;;;;8.93;4.13;;;16.00;46.70;;;;;;5087528;28;20453;-88
2022/04/13 00:47:07;;;;;;;7.90;3.27;;;15.90;46.60;;;;;;5074146;28;20702;-88
2022/04/13 00:49:35;;;;;;;7.20;3.40;;;15.90;46.70;;;;;;5096819;28;20493;-87
2022/04/13 00:52:04;;;;;;;3.63;3.37;;;15.90;46.60;;;;;;5074297;28;20637;-87
2022/04/13 00:54:32;;;;;;;5.40;3.57;;;15.90;46.90;;;;;;5073035;28;20476;-88
2022/04/13 00:57:00;;;;;;;8.03;4.87;;;15.80;47.10;;;;;;5080588;28;21050;-88
2022/04/13 00:59:27;;;;;;;6.43;5.83;;;15.80;47.00;;;;;;5088860;28;20478;-89
2022/04/13 01:01:57;;;;;;;7.83;4.90;;;15.80;47.30;;;;;;5086872;28;21295;-86
2022/04/13 01:04:28;;;;;;;6.70;4.53;;;15.80;47.40;;;;;;5074665;28;20475;-87
2022/04/13 01:06:57;;;;;;;7.70;4.80;;;15.70;47.40;;;;;;5090642;28;20474;-87
2022/04/13 01:09:25;;;;;;;6.10;4.20;;;15.70;47.40;;;;;;5089526;28;21100;-90
2022/04/13 01:11:52;;;;;;;4.97;3.47;;;15.70;47.50;;;;;;5063067;28;20464;-87
2022/04/13 01:14:19;;;;;;;6.53;4.47;;;15.70;47.60;;;;;;5094960;28;20468;-87
2022/04/13 01:16:47;;;;;;;4.53;4.03;;;15.70;47.60;;;;;;5089111;28;20510;-86
2022/04/13 01:19:17;;;;;;;6.53;4.30;;;15.60;47.60;;;;;;5087284;28;20439;-90
2022/04/13 01:21:52;;;;;;;4.60;3.90;;;15.60;47.70;;;;;;5091147;28;21109;-91
2022/04/13 01:24:22;;;;;;;8.30;4.77;;;15.50;48.00;;;;;;5077453;28;20961;-87
2022/04/13 01:26:49;;;;;;;6.30;4.07;;;15.50;47.80;;;;;;5097038;28;20550;-89
2022/04/13 01:29:22;;;;;;;5.50;4.07;;;15.50;47.80;;;;;;5090296;28;20461;-87
2022/04/13 01:31:49;;;;;;;6.63;3.87;;;15.40;47.30;;;;;;5091725;28;20464;-87
2022/04/13 01:34:16;;;;;;;5.60;4.17;;;15.40;47.40;;;;;;5094367;28;21032;-86
2022/04/13 01:36:43;;;;;;;6.37;4.27;;;15.40;47.50;;;;;;5095171;28;20460;-86
2022/04/13 01:39:10;;;;;;;5.00;3.90;;;15.30;47.40;;;;;;5085340;28;20439;-87
2022/04/13 01:41:39;;;;;;;3.87;3.50;;;15.30;46.90;;;;;;5094055;28;20450;-87
2022/04/13 01:44:06;;;;;;;8.33;3.87;;;15.20;46.70;;;;;;5100485;27;20451;-88
2022/04/13 01:46:33;;;;;;;5.07;3.87;;;15.10;47.00;;;;;;5094758;28;21133;-87
2022/04/13 01:49:00;;;;;;;5.93;4.10;;;15.10;46.80;;;;;;5092555;28;20451;-87
2022/04/13 01:51:27;;;;;;;6.17;4.33;;;15.00;46.00;;;;;;5090645;28;21269;-89
2022/04/13 01:53:54;;;;;;;4.63;4.23;;;14.90;46.30;;;;;;5091345;28;20471;-87
2022/04/13 01:56:21;;;;;;;4.17;3.10;;;14.50;46.10;;;;;;5096688;28;21086;-86
2022/04/13 01:58:49;;;;;;;6.30;3.37;;;14.00;47.70;;;;;;5092266;28;20458;-88
2022/04/13 02:01:17;;;;;;;4.40;3.40;;;14.20;48.20;;;;;;5097072;28;20431;-89
2022/04/13 02:03:44;;;;;;;4.03;3.63;;;14.50;48.20;;;;;;5092588;28;20460;-87
2022/04/13 02:06:12;;;;;;;4.30;3.67;;;14.60;47.40;;;;;;5094783;28;20463;-87
2022/04/13 02:08:39;;;;;;;5.33;4.03;;;14.70;47.00;;;;;;5094343;28;20533;-88
2022/04/13 02:11:06;;;;;;;7.17;4.10;;;14.80;47.00;;;;;;5066718;28;20449;-86
2022/04/13 02:13:33;;;;;;;5.17;4.33;;;14.90;47.20;;;;;;5077582;28;21176;-88
2022/04/13 02:16:01;;;;;;;5.50;4.33;;;14.90;47.20;;;;;;5084163;28;20513;-87
2022/04/13 02:18:28;;;;;;;7.53;4.10;;;14.90;47.00;;;;;;5080925;28;20453;-87
2022/04/13 02:20:55;;;;;;;5.03;4.27;;;14.90;46.70;;;;;;5082595;28;20967;-86
2022/04/13 02:23:22;;;;;;;4.93;4.50;;;14.90;46.50;;;;;;5074999;28;21405;-86
2022/04/13 02:25:49;;;;;;;4.70;3.73;;;14.90;46.60;;;;;;5090466;28;20459;-87
2022/04/13 02:28:16;;;;;;;3.80;3.50;;;14.90;47.00;;;;;;5078917;28;20455;-89
2022/04/13 02:30:43;;;;;;;5.10;3.93;;;14.90;47.00;;;;;;5094635;28;20461;-86
2022/04/13 02:33:11;;;;;;;4.07;3.67;;;14.90;46.80;;;;;;5078373;28;20461;-87
2022/04/13 02:35:38;;;;;;;5.00;3.73;;;14.90;47.00;;;;;;5095923;28;20447;-87
2022/04/13 02:38:05;;;;;;;9.10;3.73;;;14.80;46.90;;;;;;5078292;28;21182;-89
2022/04/13 02:40:32;;;;;;;4.37;3.97;;;14.80;47.00;;;;;;5076446;28;20829;-87
2022/04/13 02:43:00;;;;;;;4.57;3.10;;;14.80;47.10;;;;;;5088176;28;20455;-87
2022/04/13 02:45:29;;;;;;;4.60;3.87;;;14.80;47.00;;;;;;5096915;27;20513;-84
2022/04/13 02:47:56;;;;;;;5.53;3.57;;;14.80;47.10;;;;;;5092526;28;20629;-87
2022/04/13 02:50:25;;;;;;;6.90;3.70;;;14.80;47.10;;;;;;5092846;28;20446;-88
2022/04/13 02:52:56;;;;;;;5.40;3.90;;;14.70;46.90;;;;;;5078542;28;20817;-88
2022/04/13 02:55:23;;;;;;;8.70;3.70;;;14.70;47.00;;;;;;5093286;28;20467;-88
2022/04/13 02:57:53;;;;;;;5.10;3.27;;;14.70;47.10;;;;;;5091129;28;20472;-85
2022/04/13 03:00:22;;;;;;;5.27;3.53;;;14.70;47.30;;;;;;5061150;28;21283;-90
2022/04/13 03:02:49;;;;;;;4.93;3.80;;;14.60;47.50;;;;;;5083451;28;21014;-87
2022/04/13 03:05:17;;;;;;;5.20;3.60;;;14.60;48.10;;;;;;5081514;28;20452;-89
2022/04/13 03:07:46;;;;;;;4.57;4.03;;;14.60;48.10;;;;;;5092048;28;20915;-87
2022/04/13 03:10:14;;;;;;;5.60;4.37;;;14.50;48.40;;;;;;5091386;28;21166;-88
2022/04/13 03:12:42;;;;;;;3.23;3.03;;;14.50;47.90;;;;;;5077881;28;20439;-87
2022/04/13 03:15:10;;;;;;;4.47;3.37;;;14.50;48.30;;;;;;5092172;28;20899;-87
2022/04/13 03:17:38;;;;;;;3.73;3.30;;;14.50;48.30;;;;;;5078178;28;20478;-88
2022/04/13 03:23:00;;;;;;;3.97;3.30;;;14.50;48.20;;;;;;5066829;28;20941;-87
2022/04/13 03:25:27;;;;;;;4.70;3.43;;;14.40;47.30;;;;;;5090792;28;20449;-88
2022/04/13 03:27:57;;;;;;;8.07;4.70;;;14.40;47.40;;;;;;5087371;28;20457;-86
2022/04/13 03:30:24;;;;;;;6.37;4.90;;;14.30;48.30;;;;;;5074908;28;20455;-88
2022/04/13 03:32:53;;;;;;;6.50;5.50;;;14.30;47.90;;;;;;5073927;28;20522;-87
2022/04/13 03:35:23;;;;;;;8.83;6.00;;;14.20;47.70;;;;;;5065263;28;20452;-87
2022/04/13 03:37:50;;;;;;;9.93;7.30;;;14.20;48.10;;;;;;5077816;28;20494;-86
2022/04/13 03:40:19;;;;;;;8.53;5.90;;;14.20;48.00;;;;;;5086521;28;20461;-88
2022/04/13 03:42:46;;;;;;;6.67;4.80;;;14.10;47.60;;;;;;5073791;28;20444;-87
2022/04/13 03:45:15;;;;;;;6.87;4.10;;;14.00;47.00;;;;;;5090650;28;20965;-87
2022/04/13 03:47:43;;;;;;;6.60;4.20;;;13.80;47.90;;;;;;5092641;28;20470;-89
2022/04/13 03:53:01;;;;;;;5.20;3.90;;;13.80;49.00;;;;;;5086886;28;20502;-87
2022/04/13 03:55:30;;;;;;;3.93;3.47;;;13.90;48.30;;;;;;5087835;28;20490;-88
2022/04/13 03:57:57;;;;;;;6.03;4.10;;;14.00;47.90;;;;;;5087915;28;20467;-88
2022/04/13 04:00:25;;;;;;;3.80;3.20;;;13.80;47.40;;;;;;5069950;28;20443;-87
2022/04/13 04:02:52;;;;;;;7.50;5.47;;;13.90;48.10;;;;;;5069277;28;20448;-88
2022/04/13 04:05:21;;;;;;;5.97;4.33;;;13.90;48.20;;;;;;5089068;28;20962;-87
2022/04/13 04:07:49;;;;;;;9.87;3.70;;;14.00;48.10;;;;;;5088313;28;20828;-86
2022/04/13 04:10:16;;;;;;;9.13;4.20;;;14.00;48.00;;;;;;5092343;28;20453;-87
2022/04/13 04:12:45;;;;;;;4.47;4.00;;;14.10;48.30;;;;;;5081861;28;20443;-86
2022/04/13 04:15:12;;;;;;;5.13;3.57;;;14.10;48.10;;;;;;5073634;28;20466;-86
2022/04/13 04:17:40;;;;;;;4.60;4.20;;;14.10;48.30;;;;;;5088554;28;20834;-89
2022/04/13 04:22:59;;;;;;;4.53;4.13;;;14.10;48.40;;;;;;5076453;28;20451;-87
2022/04/13 04:25:27;;;;;;;4.73;4.30;;;14.10;47.90;;;;;;5087611;28;20454;-85
2022/04/13 04:27:55;;;;;;;6.03;4.47;;;14.10;47.70;;;;;;5086541;28;20535;-88
2022/04/13 04:30:22;;;;;;;5.50;4.20;;;14.00;47.60;;;;;;5054318;28;20574;-87
2022/04/13 04:32:49;;;;;;;10.03;3.80;;;14.00;47.90;;;;;;5089106;28;20466;-87
2022/04/13 04:35:16;;;;;;;6.13;5.13;;;14.00;47.80;;;;;;5087714;28;20854;-87
2022/04/13 04:37:44;;;;;;;8.50;5.80;;;14.00;47.50;;;;;;5086838;28;20842;-87
2022/04/13 04:40:15;;;;;;;6.63;4.20;;;13.90;47.60;;;;;;5088108;28;20463;-87
2022/04/13 04:42:47;;;;;;;7.63;5.10;;;13.90;47.80;;;;;;5070738;28;20447;-88
2022/04/13 04:45:19;;;;;;;8.90;6.20;;;13.90;48.10;;;;;;5073534;28;20930;-88
2022/04/13 04:47:47;;;;;;;12.13;8.30;;;13.90;48.20;;;;;;5096442;28;21002;-88
2022/04/13 04:50:15;;;;;;;10.43;7.30;;;13.80;48.40;;;;;;5071107;28;20442;-89
2022/04/13 04:52:42;;;;;;;8.50;5.70;;;13.60;49.30;;;;;;5089372;28;20448;-88
2022/04/13 04:55:09;;;;;;;7.17;4.70;;;13.60;50.10;;;;;;5085926;28;20480;-89
2022/04/13 04:57:36;;;;;;;9.40;5.00;;;13.50;51.40;;;;;;5069809;28;20487;-87
2022/04/13 05:00:05;;;;;;;10.27;5.40;;;13.40;51.50;;;;;;5085419;28;20443;-87
2022/04/13 05:02:35;;;;;;;7.80;5.43;;;13.30;51.60;;;;;;5070818;28;20461;-88
2022/04/13 05:05:02;;;;;;;5.50;4.90;;;13.30;50.80;;;;;;5084359;28;20557;-87
2022/04/13 05:07:29;;;;;;;6.97;5.63;;;13.40;50.50;;;;;;5084690;28;20920;-86
2022/04/13 05:09:58;;;;;;;6.43;4.97;;;13.50;50.40;;;;;;5067439;28;20447;-87
2022/04/13 05:12:25;;;;;;;6.90;5.03;;;13.50;49.80;;;;;;5086259;28;20442;-86
2022/04/13 05:14:54;;;;;;;7.40;5.40;;;13.50;49.80;;;;;;5068956;28;20467;-87
2022/04/13 05:17:21;;;;;;;6.03;5.20;;;13.60;50.00;;;;;;5088790;28;20487;-85
2022/04/13 05:19:49;;;;;;;8.23;4.87;;;13.60;49.80;;;;;;5074029;28;20454;-87
2022/04/13 05:22:17;;;;;;;6.47;3.93;;;13.60;48.80;;;;;;5087636;28;20736;-87
2022/04/13 05:24:44;;;;;;;8.10;5.60;;;13.60;49.60;;;;;;5088303;28;20436;-87
2022/04/13 05:27:11;;;;;;;7.57;4.90;;;13.60;49.60;;;;;;5088679;28;20475;-88
2022/04/13 05:29:38;;;;;;;6.10;5.20;;;13.50;49.30;;;;;;5089756;28;20448;-86
2022/04/13 05:32:05;;;;;;;7.03;5.00;;;13.30;50.20;;;;;;5090820;28;21143;-87
2022/04/13 05:34:33;;;;;;;6.17;5.00;;;13.40;50.50;;;;;;5054565;28;20469;-88
2022/04/13 05:37:01;;;;;;;10.00;7.10;;;13.50;50.40;;;;;;5078289;28;20479;-87
2022/04/13 05:39:28;;;;;;;7.63;6.03;;;13.60;50.30;;;;;;5080663;28;20448;-87
2022/04/13 05:41:56;;;;;;;6.30;5.20;;;13.80;49.90;;;;;;5090152;28;20486;-87
2022/04/13 05:44:23;;;;;;;5.33;4.83;;;13.90;50.10;;;;;;5089191;28;20455;-88
2022/04/13 05:46:50;;;;;;;4.97;4.53;;;14.00;50.50;;;;;;5053374;28;20478;-87
2022/04/13 05:49:17;;;;;;;8.40;6.40;;;14.00;49.80;;;;;;5088214;28;20498;-87
2022/04/13 05:51:44;;;;;;;6.33;4.57;;;14.00;49.90;;;;;;5087080;28;20448;-88
2022/04/13 05:54:12;;;;;;;12.47;4.30;;;13.90;50.10;;;;;;5085867;28;20980;-86
2022/04/13 05:56:39;;;;;;;6.37;3.97;;;14.00;50.10;;;;;;5061134;28;20471;-88
2022/04/13 05:59:06;;;;;;;5.30;4.70;;;14.10;50.30;;;;;;5088793;28;20450;-88
2022/04/13 06:01:33;;;;;;;4.60;4.07;;;14.10;50.30;;;;;;5088394;28;20446;-87
2022/04/13 06:04:00;;;;;;;5.03;4.10;;;13.90;51.60;;;;;;5088333;28;20463;-86
2022/04/13 06:06:28;;;;;;;9.90;4.87;;;13.80;52.00;;;;;;5097813;28;20463;-87
2022/04/13 06:08:55;;;;;;;5.60;5.10;;;13.80;52.20;;;;;;5087921;28;20447;-87
2022/04/13 06:11:23;;;;;;;8.13;4.57;;;13.70;52.10;;;;;;5076619;28;20470;-86
2022/04/13 06:13:50;;;;;;;8.20;4.80;;;13.90;52.00;;;;;;5070103;28;20576;-86
2022/04/13 06:16:17;;;;;;;5.70;5.13;;;14.00;51.40;;;;;;5087630;28;20482;-87
2022/04/13 06:18:44;;;;;;;9.03;5.00;;;13.90;51.60;;;;;;5076835;28;20447;-87
2022/04/13 06:21:11;;;;;;;5.40;4.60;;;14.10;51.60;;;;;;5093901;28;20494;-88
2022/04/13 06:23:38;;;;;;;6.53;4.60;;;14.10;51.40;;;;;;5090764;28;20447;-88
2022/04/13 06:26:05;;;;;;;5.77;4.80;;;14.20;51.40;;;;;;5100319;28;20835;-89
2022/04/13 06:28:33;;;;;;;5.13;4.70;;;14.20;51.50;;;;;;5092229;28;20825;-86
2022/04/13 06:31:00;;;;;;;7.50;5.10;;;14.30;51.70;;;;;;5091996;28;20467;-86
2022/04/13 06:33:27;;;;;;;5.33;4.83;;;14.20;51.60;;;;;;5089961;28;20462;-87
2022/04/13 06:35:54;;;;;;;9.23;6.00;;;14.30;51.80;;;;;;5082604;28;20483;-87
2022/04/13 06:38:21;;;;;;;7.73;6.53;;;14.40;51.70;;;;;;5095051;28;20963;-87
2022/04/13 06:40:48;;;;;;;9.60;6.40;;;14.60;51.10;;;;;;5083856;28;20450;-87
2022/04/13 06:43:15;;;;;;;10.70;7.70;;;14.60;50.90;;;;;;5091278;28;20530;-86
2022/04/13 06:45:43;;;;;;;10.00;7.40;;;14.50;51.30;;;;;;5093540;28;20447;-87
2022/04/13 06:48:10;;;;;;;10.80;7.67;;;14.50;51.20;;;;;;5068568;28;20451;-87
2022/04/13 06:50:37;;;;;;;19.30;8.00;;;14.50;51.20;;;;;;5075201;28;20447;-87
2022/04/13 06:53:04;;;;;;;7.40;5.40;;;14.60;51.10;;;;;;5089234;28;20435;-86
2022/04/13 06:55:31;;;;;;;10.43;6.20;;;14.70;50.80;;;;;;5093013;28;20472;-86
2022/04/13 06:57:58;;;;;;;11.33;5.73;;;14.70;51.10;;;;;;5093032;28;20480;-88
2022/04/13 07:00:25;;;;;;;8.67;6.40;;;14.80;50.80;;;;;;5100360;28;21219;-87
2022/04/13 07:02:57;;;;;;;17.90;6.27;;;14.90;50.50;;;;;;5089628;28;20520;-87
2022/04/13 07:05:24;;;;;;;10.03;5.60;;;15.00;50.30;;;;;;5090379;28;20519;-86
2022/04/13 07:07:51;;;;;;;8.70;5.20;;;14.90;50.00;;;;;;5090467;28;20557;-87
2022/04/13 07:10:18;;;;;;;9.67;5.77;;;14.90;49.90;;;;;;5089670;28;20498;-88
2022/04/13 07:12:45;;;;;;;8.40;5.70;;;14.90;49.40;;;;;;5092303;28;20442;-87
2022/04/13 07:15:12;;;;;;;6.57;5.60;;;14.90;50.00;;;;;;5089223;28;20469;-87
2022/04/13 07:17:39;;;;;;;7.60;5.83;;;15.00;50.30;;;;;;5101169;28;20485;-87
2022/04/13 07:20:08;;;;;;;7.43;5.33;;;15.20;50.10;;;;;;5097212;28;20970;-87
2022/04/13 07:22:43;;;;;;;11.07;5.30;;;15.30;50.10;;;;;;5089381;28;20439;-87
2022/04/13 07:25:10;;;;;;;7.53;5.60;;;15.30;49.90;;;;;;5085594;28;20447;-87
2022/04/13 07:27:37;;;;;;;5.97;5.00;;;15.30;49.40;;;;;;5091710;28;20481;-87
2022/04/13 07:30:05;;;;;;;6.93;4.70;;;15.40;49.20;;;;;;5068994;28;21022;-87
2022/04/13 07:32:32;;;;;;;10.93;4.70;;;15.60;48.80;;;;;;5081012;28;21115;-86
2022/04/13 07:34:59;;;;;;;5.13;4.30;;;15.80;47.80;;;;;;5087324;28;20456;-86
2022/04/13 07:37:28;;;;;;;5.70;4.40;;;15.70;47.40;;;;;;5105118;27;20580;-87
2022/04/13 07:39:55;;;;;;;6.20;5.07;;;15.90;47.40;;;;;;5089343;28;20459;-88
2022/04/13 07:42:22;;;;;;;6.63;5.77;;;16.00;47.40;;;;;;5088001;28;20437;-90
2022/04/13 07:44:49;;;;;;;7.57;6.13;;;16.20;47.50;;;;;;5091503;28;20496;-87
2022/04/13 07:47:16;;;;;;;5.37;4.87;;;16.50;47.80;;;;;;5091123;28;20502;-87
2022/04/13 07:49:43;;;;;;;8.53;5.03;;;16.70;47.80;;;;;;5090565;28;20535;-87
2022/04/13 07:52:11;;;;;;;4.63;4.03;;;16.80;46.70;;;;;;5070811;28;20523;-88
2022/04/13 07:54:39;;;;;;;8.77;5.23;;;16.80;46.30;;;;;;5076897;28;20454;-86
2022/04/13 07:57:07;;;;;;;8.00;4.20;;;16.80;46.50;;;;;;5078784;28;20464;-87
2022/04/13 07:59:34;;;;;;;5.87;4.97;;;16.90;45.90;;;;;;5077785;28;20966;-87
2022/04/13 08:02:02;;;;;;;3.63;3.33;;;17.00;45.60;;;;;;5079568;28;20458;-87
2022/04/13 08:04:28;;;;;;;5.60;3.70;;;17.00;45.70;;;;;;5088327;28;20462;-87
2022/04/13 08:06:56;;;;;;;5.13;4.23;;;16.90;44.10;;;;;;5070976;28;20455;-87
2022/04/13 08:09:23;;;;;;;9.23;4.27;;;16.90;45.10;;;;;;5089134;28;20441;-87
2022/04/13 08:11:52;;;;;;;5.80;4.23;;;17.10;44.80;;;;;;5070220;28;20451;-86
2022/04/13 08:14:19;;;;;;;4.60;4.20;;;17.30;44.60;;;;;;5080745;28;20518;-87
2022/04/13 08:16:46;;;;;;;5.43;4.43;;;17.50;44.50;;;;;;5086907;28;20974;-87
2022/04/13 08:19:13;;;;;;;10.23;4.23;;;17.60;44.00;;;;;;5089851;28;21008;-88
2022/04/13 08:21:40;;;;;;;5.83;4.10;;;17.70;44.00;;;;;;5087613;28;20864;-87
2022/04/13 08:24:07;;;;;;;8.00;4.50;;;17.80;44.00;;;;;;5088660;28;20454;-88
2022/04/13 08:26:35;;;;;;;5.10;4.60;;;18.00;43.50;;;;;;5093479;28;20455;-87
2022/04/13 08:29:04;;;;;;;6.10;4.30;;;18.10;43.40;;;;;;5088497;27;20451;-88
2022/04/13 08:31:31;;;;;;;7.73;4.67;;;18.10;42.70;;;;;;5088578;28;20444;-86
2022/04/13 08:33:58;;;;;;;4.90;4.40;;;18.30;42.90;;;;;;5088533;28;20990;-86
2022/04/13 08:36:25;;;;;;;4.97;4.50;;;18.40;42.70;;;;;;5086281;28;20472;-86
2022/04/13 08:38:52;;;;;;;10.73;9.70;;;18.50;42.80;;;;;;5082257;28;21008;-89
2022/04/13 08:41:28;;;;;;;8.80;4.33;;;18.40;42.80;;;;;;5088458;28;20462;-86
2022/04/13 08:44:02;;;;;;;11.87;5.00;;;18.40;42.50;;;;;;5069476;28;21013;-85
2022/04/13 08:47:01;;;;;;;5.57;4.10;;;18.60;42.90;;;;;;5095515;28;20558;-87
2022/04/13 08:49:31;;;;;;;5.60;4.07;;;18.70;42.10;;;;;;5104297;27;20450;-87
2022/04/13 08:52:03;;;;;;;8.00;3.70;;;18.90;41.50;;;;;;5079165;28;20863;-86
2022/04/13 08:55:04;;;;;;;10.23;4.37;;;18.90;41.60;;;;;;5088127;28;21311;-86
2022/04/13 08:57:37;;;;;;;6.43;4.80;;;19.10;41.50;;;;;;5088453;28;20698;-87
2022/04/13 09:00:10;;;;;;;7.63;4.43;;;19.10;41.70;;;;;;5095033;28;20483;-88
2022/04/13 09:03:13;;;;;;;4.47;3.70;;;19.30;42.20;;;;;;5087418;28;20451;-86
2022/04/13 09:05:43;;;;;;;9.70;4.63;;;19.40;40.90;;;;;;5061874;28;20504;-87
2022/04/13 09:08:16;;;;;;;5.00;3.70;;;19.50;40.50;;;;;;5089018;28;20451;-87
2022/04/13 09:10:44;;;;;;;5.47;4.17;;;19.70;41.00;;;;;;5087121;28;21062;-87
2022/04/13 09:13:13;;;;;;;5.73;4.30;;;19.70;40.30;;;;;;5069637;28;21059;-87
2022/04/13 09:15:41;;;;;;;7.50;3.53;;;19.90;40.60;;;;;;5090428;28;20551;-87
2022/04/13 09:18:11;;;;;;;7.37;4.33;;;20.00;39.80;;;;;;5089722;28;20558;-87
2022/04/13 09:20:39;;;;;;;4.90;4.50;;;20.10;39.10;;;;;;5081050;28;20496;-87
2022/04/13 09:23:07;;;;;;;13.43;4.50;;;20.20;39.50;;;;;;5078764;28;20478;-87
2022/04/13 09:25:36;;;;;;;12.00;4.20;;;20.40;40.10;;;;;;5086857;28;20468;-84
2022/04/13 09:28:04;;;;;;;8.60;4.57;;;20.50;39.50;;;;;;5079165;28;20447;-86
2022/04/13 09:30:33;;;;;;;6.50;3.83;;;20.60;38.70;;;;;;5088201;28;20452;-89
2022/04/13 09:33:02;;;;;;;9.03;4.50;;;20.80;38.90;;;;;;5073617;28;20989;-87
2022/04/13 09:35:33;;;;;;;7.40;4.00;;;20.90;38.90;;;;;;5086581;28;20818;-87
2022/04/13 09:38:04;;;;;;;7.10;4.00;;;21.00;37.80;;;;;;5088277;28;20534;-87
2022/04/13 09:40:34;;;;;;;6.83;3.83;;;21.20;37.20;;;;;;5071905;28;20443;-86
2022/04/13 09:43:09;;;;;;;4.50;4.10;;;21.40;38.50;;;;;;5087330;28;20444;-88
2022/04/13 09:45:39;;;;;;;6.83;4.63;;;21.50;37.70;;;;;;5087894;28;20445;-88
2022/04/13 09:48:10;;;;;;;5.80;4.90;;;21.50;36.60;;;;;;5087794;28;20450;-87
2022/04/13 09:50:39;;;;;;;7.30;4.30;;;21.50;36.50;;;;;;5087922;28;20474;-88
2022/04/13 09:53:07;;;;;;;10.70;4.27;;;21.60;36.90;;;;;;5087626;28;20452;-87
2022/04/13 09:55:37;;;;;;;5.90;4.37;;;21.60;36.60;;;;;;5073142;28;20447;-84
2022/04/13 09:58:05;;;;;;;7.17;4.97;;;21.70;37.00;;;;;;5089000;28;20447;-87
2022/04/13 10:00:33;;;;;;;10.20;4.40;;;21.90;36.90;;;;;;5091133;28;20435;-86
2022/04/13 10:03:09;;;;;;;9.17;3.93;;;22.00;37.20;;;;;;5081414;28;20459;-87
2022/04/13 10:05:37;;;;;;;9.53;4.53;;;22.10;35.80;;;;;;5087199;28;20442;-88
2022/04/13 10:08:30;;;;;;;6.00;4.33;;;22.30;36.40;;;;;;5093231;28;21263;-86
2022/04/13 10:10:59;;;;;;;9.17;5.17;;;22.30;35.50;;;;;;5087755;28;21127;-86
2022/04/13 10:13:34;;;;;;;13.23;4.57;;;22.40;36.20;;;;;;5088629;28;20435;-88
2022/04/13 10:18:57;;;;;;;5.10;4.60;;;22.80;36.50;;;;;;5089353;28;20443;-87
2022/04/13 10:21:40;;;;;;;5.50;3.90;;;23.00;35.00;;;;;;5092656;28;20464;-88
2022/04/13 10:27:02;;;;;;;6.40;4.03;;;23.00;34.70;;;;;;5089414;28;20466;-86
2022/04/13 10:29:29;;;;;;;7.40;4.30;;;23.10;34.40;;;;;;5092122;28;20447;-87
2022/04/13 10:32:04;;;;;;;7.67;4.47;;;23.00;34.50;;;;;;5074162;28;20448;-87
2022/04/13 10:34:59;;;;;;;7.23;3.70;;;23.30;34.50;;;;;;5088760;28;20436;-84
2022/04/13 10:37:27;;;;;;;5.93;4.10;;;23.50;35.20;;;;;;5090761;28;20478;-90
2022/04/13 10:39:58;;;;;;;5.10;3.90;;;23.50;34.00;;;;;;5087931;28;20467;-87
2022/04/13 10:42:30;;;;;;;5.23;4.20;;;23.50;34.40;;;;;;5089768;28;20451;-87
2022/04/13 10:45:04;;;;;;;6.83;4.80;;;23.80;34.90;;;;;;5071471;28;20464;-86
2022/04/13 10:47:44;;;;;;;6.47;4.87;;;23.90;34.80;;;;;;5082593;28;20470;-87
2022/04/13 10:50:16;;;;;;;7.53;4.27;;;24.30;34.10;;;;;;5089076;28;20464;-88
2022/04/13 10:52:55;;;;;;;8.70;4.60;;;24.60;34.00;;;;;;5098364;28;20800;-88
2022/04/13 10:55:23;;;;;;;6.70;4.40;;;24.60;32.10;;;;;;5091098;28;20532;-88
2022/04/13 10:57:53;;;;;;;7.10;4.90;;;24.60;33.40;;;;;;5064423;28;20472;-86
2022/04/13 11:00:23;;;;;;;5.40;4.33;;;24.50;32.60;;;;;;5087244;28;20450;-89
2022/04/13 11:02:54;;;;;;;7.93;4.77;;;24.50;32.00;;;;;;5064318;28;21124;-85
2022/04/13 11:05:22;;;;;;;13.10;4.80;;;24.40;32.10;;;;;;5087803;28;20610;-86
2022/04/13 11:07:56;;;;;;;5.30;4.40;;;24.40;32.30;;;;;;5086940;28;20460;-89
2022/04/13 11:10:24;;;;;;;6.47;3.90;;;24.40;32.80;;;;;;5072990;28;20504;-88
2022/04/13 11:12:51;;;;;;;4.00;3.50;;;24.60;32.20;;;;;;5087924;28;20443;-88
2022/04/13 11:15:19;;;;;;;6.80;3.70;;;24.80;32.50;;;;;;5087579;27;20468;-87
2022/04/13 11:17:46;;;;;;;6.70;3.97;;;24.80;32.30;;;;;;5088194;28;21053;-87
2022/04/13 11:20:21;;;;;;;7.27;3.50;;;24.90;32.50;;;;;;5088148;28;20432;-87
2022/04/13 11:23:08;;;;;;;6.37;4.50;;;25.00;31.80;;;;;;5087654;28;20455;-87
2022/04/13 11:25:49;;;;;;;8.40;4.60;;;24.80;31.60;;;;;;5090039;28;20459;-85
2022/04/13 11:28:27;;;;;;;8.20;4.93;;;24.90;32.20;;;;;;5088970;28;20450;-90
2022/04/13 11:31:04;;;;;;;9.27;4.23;;;24.90;31.80;;;;;;5087012;28;20432;-87
2022/04/13 11:33:42;;;;;;;6.27;4.43;;;24.90;33.00;;;;;;5091262;28;20445;-86
2022/04/13 11:36:09;;;;;;;6.60;4.77;;;25.20;33.90;;;;;;5088674;28;20465;-87
2022/04/13 11:38:37;;;;;;;8.17;4.50;;;25.40;33.50;;;;;;5089916;28;20452;-87
2022/04/13 11:41:06;;;;;;;6.33;4.10;;;25.80;32.00;;;;;;5089532;28;20884;-89
2022/04/13 11:43:33;;;;;;;7.43;3.63;;;25.60;32.40;;;;;;5092065;28;20507;-88
2022/04/13 11:46:01;;;;;;;6.77;4.37;;;25.80;32.40;;;;;;5075210;28;20835;-87
2022/04/13 11:48:35;;;;;;;4.70;3.87;;;25.80;31.30;;;;;;5072112;28;20447;-87
2022/04/13 11:51:29;;;;;;;7.33;4.23;;;25.50;32.50;;;;;;5088516;28;20463;-87
2022/04/13 11:54:06;;;;;;;4.20;3.80;;;25.80;33.20;;;;;;5088767;28;20940;-88
2022/04/13 11:56:34;;;;;;;6.00;3.77;;;26.00;31.70;;;;;;5085750;28;21050;-89
2022/04/13 11:59:02;;;;;;;6.30;4.03;;;25.90;30.90;;;;;;5089626;28;20455;-87
2022/04/13 12:01:29;;;;;;;6.80;4.17;;;26.10;30.90;;;;;;5094174;28;20451;-89
2022/04/13 12:03:58;;;;;;;7.47;4.97;;;26.10;31.00;;;;;;5088792;28;20478;-88
2022/04/13 12:06:26;;;;;;;7.87;4.17;;;26.20;30.70;;;;;;5088084;28;20465;-85
2022/04/13 12:08:58;;;;;;;6.73;4.00;;;26.30;31.30;;;;;;5087116;28;20450;-87
2022/04/13 12:11:39;;;;;;;11.17;4.43;;;26.50;31.30;;;;;;5087877;28;20829;-86
2022/04/13 12:14:07;;;;;;;15.07;5.37;;;26.50;31.00;;;;;;5087301;28;20823;-90
2022/04/13 12:16:37;;;;;;;6.17;3.80;;;26.60;31.90;;;;;;5089880;28;20525;-88
2022/04/13 12:19:06;;;;;;;8.80;4.33;;;26.80;30.40;;;;;;5087871;28;20563;-87
2022/04/13 12:21:35;;;;;;;5.60;4.50;;;26.70;30.70;;;;;;5088780;28;20455;-87
2022/04/13 12:24:06;;;;;;;9.03;4.50;;;26.60;30.00;;;;;;5088263;28;20451;-87
2022/04/13 12:26:35;;;;;;;7.13;4.73;;;26.90;30.60;;;;;;5089660;27;20487;-88
2022/04/13 12:29:11;;;;;;;11.33;5.07;;;27.10;30.40;;;;;;5072072;28;20440;-86
2022/04/13 12:31:45;;;;;;;7.67;4.37;;;27.10;30.10;;;;;;5088104;28;20443;-87
2022/04/13 12:34:15;;;;;;;6.30;4.30;;;27.20;31.00;;;;;;5085685;28;20483;-86
2022/04/13 12:36:43;;;;;;;9.70;4.63;;;27.40;30.00;;;;;;5090568;28;20491;-86
2022/04/13 12:39:12;;;;;;;8.70;4.20;;;27.50;29.70;;;;;;5096151;28;21664;-87
2022/04/13 12:41:39;;;;;;;9.10;4.03;;;27.60;30.00;;;;;;5086940;28;20451;-88
2022/04/13 12:44:07;;;;;;;9.17;4.80;;;27.70;30.20;;;;;;5086239;28;20459;-87
2022/04/13 12:46:35;;;;;;;7.90;4.93;;;27.70;29.50;;;;;;5085073;28;20440;-86
2022/04/13 12:49:04;;;;;;;7.00;5.40;;;27.20;29.80;;;;;;5087435;28;20456;-87
2022/04/13 12:51:32;;;;;;;6.93;3.80;;;27.10;29.80;;;;;;5087673;28;20459;-87
2022/04/13 12:54:00;;;;;;;9.97;5.00;;;27.10;30.00;;;;;;5087091;28;20450;-87
2022/04/13 12:56:30;;;;;;;5.90;4.47;;;27.30;30.30;;;;;;5087995;28;20488;-87
2022/04/13 12:58:59;;;;;;;7.47;5.40;;;27.50;30.50;;;;;;5089230;28;20451;-86
2022/04/13 13:01:31;;;;;;;14.30;4.43;;;27.40;29.30;;;;;;5086543;28;20463;-87
2022/04/13 13:04:00;;;;;;;7.60;4.33;;;27.20;30.00;;;;;;5087065;28;20464;-86
2022/04/13 13:06:30;;;;;;;11.10;5.10;;;27.40;29.50;;;;;;5089322;28;20547;-87
2022/04/13 13:08:59;;;;;;;8.93;5.50;;;27.60;29.30;;;;;;5087231;28;20440;-88